Time;durP1;ratioP1;P1;durP2;ratioP2;P2;SDS_P1;SDS_P2;PMS_P1;PMS_P2;Temp;Humidity;BMP_temperature;BMP_pressure;BME280_temperature;BME280_humidity;BME280_pressure;Samples;Min_cycle;Max_cycle;Signal;HPM_P1;HPM_P2
2022/07/30 00:01:47;;;;;;;1.65;1.50;;;27.10;36.40;;;;;;5109034;27;45286;-73
2022/07/30 00:04:14;;;;;;;1.08;0.98;;;27.10;36.50;;;;;;5109160;27;45207;-73
2022/07/30 00:06:41;;;;;;;3.15;1.35;;;27.10;36.50;;;;;;5097118;27;46450;-73
2022/07/30 00:09:08;;;;;;;1.30;1.20;;;27.10;36.50;;;;;;5088255;28;45322;-73
2022/07/30 00:11:35;;;;;;;1.02;1.02;;;27.10;36.50;;;;;;5088659;28;45319;-73
2022/07/30 00:14:01;;;;;;;1.10;1.10;;;27.10;36.60;;;;;;5088641;28;45325;-73
2022/07/30 00:16:30;;;;;;;1.55;1.40;;;27.10;36.50;;;;;;5087564;27;45641;-72
2022/07/30 00:18:56;;;;;;;2.22;1.15;;;27.10;36.60;;;;;;5088168;28;45176;-73
2022/07/30 00:21:23;;;;;;;1.33;1.23;;;27.00;36.50;;;;;;5088376;28;45182;-73
2022/07/30 00:23:50;;;;;;;1.25;1.15;;;27.00;36.50;;;;;;5088265;28;45448;-72
2022/07/30 00:26:17;;;;;;;1.23;1.13;;;27.00;36.60;;;;;;5087906;28;45345;-73
2022/07/30 00:28:44;;;;;;;1.25;1.23;;;27.00;36.60;;;;;;5087479;28;45288;-72
2022/07/30 00:31:10;;;;;;;1.25;1.15;;;27.00;36.50;;;;;;5067209;28;45123;-73
2022/07/30 00:33:39;;;;;;;1.40;1.30;;;27.00;36.60;;;;;;5067939;28;45361;-73
2022/07/30 00:36:06;;;;;;;1.40;1.30;;;27.00;36.70;;;;;;5071372;28;47316;-73
2022/07/30 00:38:33;;;;;;;1.50;1.40;;;27.00;36.70;;;;;;5104661;27;45323;-73
2022/07/30 00:40:59;;;;;;;1.17;1.17;;;27.00;36.70;;;;;;5108358;27;45300;-73
2022/07/30 00:43:26;;;;;;;1.13;1.08;;;27.00;36.70;;;;;;5108631;27;45237;-73
2022/07/30 00:45:53;;;;;;;1.25;1.10;;;26.90;36.70;;;;;;5108071;27;46388;-73
2022/07/30 00:48:20;;;;;;;1.33;1.20;;;26.90;36.70;;;;;;5108285;27;45147;-73
2022/07/30 00:50:48;;;;;;;1.40;1.25;;;26.90;36.80;;;;;;5108319;27;45260;-73
2022/07/30 00:53:15;;;;;;;1.33;1.23;;;26.90;36.70;;;;;;5108521;27;45311;-73
2022/07/30 00:55:42;;;;;;;1.20;1.10;;;26.90;36.70;;;;;;5107989;27;45173;-73
2022/07/30 00:58:09;;;;;;;1.20;1.20;;;26.90;36.80;;;;;;5107916;27;45202;-73
2022/07/30 01:00:35;;;;;;;1.30;1.27;;;26.90;36.80;;;;;;5108089;27;45383;-73
2022/07/30 01:03:03;;;;;;;1.25;1.05;;;26.90;37.30;;;;;;5108204;27;45462;-73
2022/07/30 01:05:30;;;;;;;1.17;1.10;;;26.80;36.70;;;;;;5106270;27;45826;-73
2022/07/30 01:07:58;;;;;;;1.42;1.33;;;26.90;36.90;;;;;;5087245;28;45201;-73
2022/07/30 01:10:25;;;;;;;1.10;1.10;;;26.80;36.70;;;;;;5087579;28;45251;-73
2022/07/30 01:12:53;;;;;;;1.20;1.00;;;26.80;36.80;;;;;;5087793;28;45326;-73
2022/07/30 01:15:20;;;;;;;1.45;1.30;;;26.80;36.90;;;;;;5086530;28;46413;-73
2022/07/30 01:17:47;;;;;;;1.00;1.00;;;26.80;36.90;;;;;;5087278;28;45143;-73
2022/07/30 01:20:15;;;;;;;1.20;1.20;;;26.80;36.90;;;;;;5087412;28;45190;-73
2022/07/30 01:22:48;;;;;;;1.40;1.30;;;26.80;36.90;;;;;;5087737;28;45310;-73
2022/07/30 01:25:22;;;;;;;1.42;1.20;;;26.70;37.00;;;;;;5086952;28;48629;-73
2022/07/30 01:27:52;;;;;;;1.25;1.15;;;26.70;36.90;;;;;;5086339;27;45281;-73
2022/07/30 01:30:20;;;;;;;1.30;1.30;;;26.70;36.90;;;;;;5100447;27;45219;-72
2022/07/30 01:32:47;;;;;;;1.50;1.38;;;26.70;37.00;;;;;;5107780;27;45479;-73
2022/07/30 01:35:14;;;;;;;1.38;1.27;;;26.70;37.00;;;;;;5107324;27;45465;-73
2022/07/30 01:37:41;;;;;;;1.45;1.20;;;26.70;37.00;;;;;;5099379;27;45337;-73
2022/07/30 01:40:09;;;;;;;1.52;1.20;;;26.70;37.00;;;;;;5107470;27;45375;-73
2022/07/30 01:42:36;;;;;;;1.30;1.20;;;26.70;37.10;;;;;;5107875;27;45404;-73
2022/07/30 01:45:05;;;;;;;1.20;1.10;;;26.60;37.00;;;;;;5107206;27;45303;-73
2022/07/30 01:47:32;;;;;;;1.52;1.30;;;26.60;37.10;;;;;;5107288;27;45272;-73
2022/07/30 01:49:59;;;;;;;2.20;1.20;;;26.60;37.10;;;;;;5107293;27;45451;-73
2022/07/30 01:52:26;;;;;;;1.40;1.30;;;26.60;37.20;;;;;;5107442;27;45245;-72
2022/07/30 01:54:53;;;;;;;2.20;1.20;;;26.60;37.10;;;;;;5107142;27;46677;-73
2022/07/30 01:57:20;;;;;;;1.40;1.30;;;26.60;37.20;;;;;;5107139;27;45189;-73
2022/07/30 01:59:49;;;;;;;1.48;1.38;;;26.60;37.20;;;;;;5107295;27;45312;-73
2022/07/30 02:02:17;;;;;;;1.67;1.30;;;26.60;37.20;;;;;;5107389;27;45449;-72
2022/07/30 02:04:44;;;;;;;1.83;1.38;;;26.50;37.20;;;;;;5107070;27;46699;-73
2022/07/30 02:07:14;;;;;;;1.10;1.10;;;26.50;37.20;;;;;;5090540;27;45351;-73
2022/07/30 02:09:43;;;;;;;1.73;1.27;;;26.50;37.20;;;;;;5085974;28;45361;-73
2022/07/30 02:12:28;;;;;;;2.25;1.40;;;26.50;37.20;;;;;;5087061;28;45233;-73
2022/07/30 02:15:00;;;;;;;1.38;1.30;;;26.50;37.20;;;;;;5085956;28;46402;-73
2022/07/30 02:17:29;;;;;;;2.65;1.40;;;26.50;37.40;;;;;;5085876;28;45217;-74
2022/07/30 02:19:56;;;;;;;1.35;1.25;;;26.50;37.30;;;;;;5086571;28;45192;-73
2022/07/30 02:22:24;;;;;;;1.33;1.23;;;26.50;37.40;;;;;;5087189;28;45252;-73
2022/07/30 02:24:51;;;;;;;1.33;1.25;;;26.40;37.30;;;;;;5086306;28;47600;-72
2022/07/30 02:27:19;;;;;;;1.58;1.48;;;26.40;37.40;;;;;;5086269;28;45994;-73
2022/07/30 02:29:46;;;;;;;1.40;1.30;;;26.40;37.40;;;;;;5094931;27;45431;-73
2022/07/30 02:32:15;;;;;;;1.48;1.38;;;26.40;37.50;;;;;;5107057;27;45303;-73
2022/07/30 02:34:43;;;;;;;2.28;1.33;;;26.40;37.50;;;;;;5106699;27;46525;-73
2022/07/30 02:37:11;;;;;;;1.60;1.50;;;26.40;37.50;;;;;;5099006;27;45415;-73
2022/07/30 02:39:38;;;;;;;1.73;1.60;;;26.40;37.50;;;;;;5108092;27;45207;-73
2022/07/30 02:42:05;;;;;;;1.60;1.50;;;26.40;37.50;;;;;;5110510;27;45360;-73
2022/07/30 02:44:32;;;;;;;1.35;1.25;;;26.30;37.50;;;;;;5109989;27;45651;-73
2022/07/30 02:46:59;;;;;;;1.60;1.50;;;26.30;37.50;;;;;;5110204;27;45253;-73
2022/07/30 02:49:26;;;;;;;1.50;1.40;;;26.30;37.60;;;;;;5110276;27;45295;-73
2022/07/30 02:51:54;;;;;;;1.75;1.20;;;26.30;37.60;;;;;;5110285;27;45442;-73
2022/07/30 02:54:20;;;;;;;1.38;1.30;;;26.30;37.70;;;;;;5109905;27;46483;-73
2022/07/30 02:56:48;;;;;;;1.70;1.60;;;26.30;37.70;;;;;;5110072;27;45128;-73
2022/07/30 02:59:15;;;;;;;1.50;1.40;;;26.30;37.70;;;;;;5110109;27;45246;-73
2022/07/30 03:01:42;;;;;;;1.40;1.30;;;26.20;37.70;;;;;;5110346;27;45485;-73
2022/07/30 03:04:09;;;;;;;1.30;1.20;;;26.20;37.70;;;;;;5109263;27;46431;-73
2022/07/30 03:06:36;;;;;;;1.40;1.30;;;26.20;37.70;;;;;;5098803;27;45293;-73
2022/07/30 03:09:04;;;;;;;1.65;1.50;;;26.20;37.70;;;;;;5089617;28;45264;-73
2022/07/30 03:11:31;;;;;;;1.35;1.25;;;26.20;37.70;;;;;;5089564;28;45272;-73
2022/07/30 03:13:57;;;;;;;1.52;1.42;;;26.20;37.70;;;;;;5089256;28;45419;-73
2022/07/30 03:16:25;;;;;;;1.40;1.30;;;26.20;37.80;;;;;;5089320;28;45245;-73
2022/07/30 03:18:51;;;;;;;1.48;1.38;;;26.20;37.80;;;;;;5089685;28;45305;-73
2022/07/30 03:21:18;;;;;;;1.55;1.30;;;26.10;37.70;;;;;;5089607;28;45186;-73
2022/07/30 03:23:45;;;;;;;1.60;1.33;;;26.10;37.80;;;;;;5089012;28;46680;-73
2022/07/30 03:26:13;;;;;;;1.73;1.60;;;26.10;37.80;;;;;;5088960;28;45328;-73
2022/07/30 03:28:40;;;;;;;1.10;1.10;;;26.10;37.80;;;;;;5088945;28;45382;-73
2022/07/30 03:31:09;;;;;;;1.60;1.50;;;26.10;37.80;;;;;;5089502;28;45246;-73
2022/07/30 03:33:36;;;;;;;1.20;1.20;;;26.10;37.80;;;;;;5088877;28;47714;-73
2022/07/30 03:36:02;;;;;;;1.38;1.27;;;26.00;37.90;;;;;;5092366;27;45497;-73
2022/07/30 03:38:29;;;;;;;1.10;1.10;;;26.00;37.80;;;;;;5109241;27;45146;-73
2022/07/30 03:40:56;;;;;;;1.48;1.38;;;26.00;37.80;;;;;;5109601;27;45272;-73
2022/07/30 03:43:24;;;;;;;1.38;1.27;;;26.00;37.80;;;;;;5108926;27;45194;-73
2022/07/30 03:45:51;;;;;;;1.42;1.33;;;26.00;37.90;;;;;;5109088;27;45248;-73
2022/07/30 03:48:18;;;;;;;1.85;1.45;;;26.00;37.90;;;;;;5109209;27;45336;-73
2022/07/30 03:50:45;;;;;;;3.13;1.48;;;25.90;37.80;;;;;;5107675;27;45400;-73
2022/07/30 03:53:11;;;;;;;2.08;1.30;;;25.90;37.90;;;;;;5109208;27;46895;-73
2022/07/30 03:55:38;;;;;;;1.90;1.70;;;25.90;37.90;;;;;;5109439;27;45202;-73
2022/07/30 03:58:06;;;;;;;1.75;1.50;;;25.90;37.90;;;;;;5109218;27;45156;-74
2022/07/30 04:00:34;;;;;;;1.20;1.10;;;25.90;37.90;;;;;;5109298;27;45323;-73
2022/07/30 04:03:01;;;;;;;1.67;1.20;;;25.90;38.00;;;;;;5108915;27;45239;-73
2022/07/30 04:05:28;;;;;;;1.50;1.40;;;25.90;37.90;;;;;;5107510;27;45166;-73
2022/07/30 04:07:55;;;;;;;1.30;1.20;;;25.90;38.00;;;;;;5088633;28;45228;-73
2022/07/30 04:10:21;;;;;;;1.30;1.20;;;25.80;37.90;;;;;;5088659;28;45186;-73
2022/07/30 04:12:48;;;;;;;1.75;1.10;;;25.80;38.00;;;;;;5088290;28;46724;-73
2022/07/30 04:15:15;;;;;;;1.42;1.33;;;25.80;38.00;;;;;;5088367;28;45299;-73
2022/07/30 04:17:45;;;;;;;1.55;1.45;;;25.80;38.00;;;;;;5088174;28;45305;-73
2022/07/30 04:20:13;;;;;;;1.48;1.38;;;25.80;38.00;;;;;;5088634;28;45518;-73
2022/07/30 04:22:40;;;;;;;1.77;1.40;;;25.80;38.10;;;;;;5088082;28;46377;-73
2022/07/30 04:25:07;;;;;;;1.45;1.35;;;25.70;38.00;;;;;;5088164;28;45284;-73
2022/07/30 04:27:34;;;;;;;2.03;1.30;;;25.70;38.00;;;;;;5088178;28;45182;-72
2022/07/30 04:30:01;;;;;;;1.40;1.30;;;25.70;38.10;;;;;;5098885;27;45248;-73
2022/07/30 04:32:28;;;;;;;3.22;1.33;;;25.70;38.10;;;;;;5108408;27;45487;-72
2022/07/30 04:34:56;;;;;;;1.30;1.20;;;25.70;38.10;;;;;;5108009;27;45288;-73
2022/07/30 04:37:25;;;;;;;1.52;1.40;;;25.70;38.10;;;;;;5100073;27;45242;-73
2022/07/30 04:39:53;;;;;;;1.15;1.15;;;25.60;38.00;;;;;;5108261;27;45251;-73
2022/07/30 04:42:20;;;;;;;1.30;1.20;;;25.60;38.00;;;;;;5108370;27;45514;-73
2022/07/30 04:44:48;;;;;;;1.30;1.20;;;25.60;38.00;;;;;;5108351;27;45191;-73
2022/07/30 04:47:15;;;;;;;2.88;1.20;;;25.60;38.10;;;;;;5108922;27;45201;-73
2022/07/30 04:49:42;;;;;;;1.30;1.20;;;25.60;38.10;;;;;;5108402;27;45308;-73
2022/07/30 04:52:10;;;;;;;1.65;1.20;;;25.60;38.10;;;;;;5108121;27;46801;-73
2022/07/30 04:54:39;;;;;;;1.30;1.20;;;25.60;38.10;;;;;;5108265;27;45250;-73
2022/07/30 04:57:06;;;;;;;1.17;1.17;;;25.50;38.00;;;;;;5108205;27;45203;-73
2022/07/30 04:59:35;;;;;;;1.67;1.50;;;25.50;38.00;;;;;;5108317;27;45295;-73
2022/07/30 05:02:02;;;;;;;1.20;1.17;;;25.50;38.10;;;;;;5107785;27;45473;-73
2022/07/30 05:04:29;;;;;;;1.10;1.10;;;25.50;38.10;;;;;;5107841;27;45215;-73
2022/07/30 05:06:56;;;;;;;1.40;1.30;;;25.50;38.10;;;;;;5094276;27;45415;-73
2022/07/30 05:09:24;;;;;;;1.30;1.23;;;25.50;38.10;;;;;;5087793;28;45431;-73
2022/07/30 05:11:52;;;;;;;1.15;1.15;;;25.50;38.10;;;;;;5087171;28;45253;-73
2022/07/30 05:14:18;;;;;;;1.30;1.20;;;25.50;38.10;;;;;;5087273;28;45223;-73
2022/07/30 05:16:45;;;;;;;1.67;1.58;;;25.50;38.10;;;;;;5087578;28;45215;-73
2022/07/30 05:19:12;;;;;;;1.20;1.10;;;25.50;38.20;;;;;;5087503;28;45622;-73
2022/07/30 05:21:39;;;;;;;1.33;1.23;;;25.40;38.10;;;;;;5087150;28;46663;-73
2022/07/30 05:24:07;;;;;;;1.50;1.40;;;25.40;38.10;;;;;;5086447;28;45220;-73
2022/07/30 05:26:35;;;;;;;1.33;1.23;;;25.40;38.10;;;;;;5087338;28;45184;-73
2022/07/30 05:29:02;;;;;;;2.15;1.70;;;25.40;38.20;;;;;;5089561;27;45396;-73
2022/07/30 05:31:29;;;;;;;2.33;1.50;;;25.40;38.30;;;;;;5107530;27;47348;-73
2022/07/30 05:33:55;;;;;;;1.40;1.30;;;25.40;38.10;;;;;;5107531;27;45374;-73
2022/07/30 05:36:22;;;;;;;1.30;1.27;;;25.40;38.10;;;;;;5101314;27;45171;-73
2022/07/30 05:38:49;;;;;;;1.20;1.20;;;25.40;38.20;;;;;;5079948;28;45367;-73
2022/07/30 05:41:16;;;;;;;2.40;1.30;;;25.40;38.10;;;;;;5066407;28;46403;-73
2022/07/30 05:43:44;;;;;;;1.40;1.30;;;25.40;38.20;;;;;;5066787;28;45258;-74
2022/07/30 05:46:11;;;;;;;1.23;1.23;;;25.40;38.10;;;;;;5066651;28;45365;-73
2022/07/30 05:48:38;;;;;;;2.22;1.50;;;25.40;38.10;;;;;;5066958;28;45262;-73
2022/07/30 05:51:05;;;;;;;1.35;1.30;;;25.40;38.20;;;;;;5066361;28;45228;-73
2022/07/30 05:53:31;;;;;;;1.48;1.35;;;25.40;38.20;;;;;;5066492;28;45290;-73
2022/07/30 05:55:59;;;;;;;1.63;1.30;;;25.40;38.30;;;;;;5066509;28;45359;-73
2022/07/30 05:58:25;;;;;;;1.15;1.10;;;25.40;38.30;;;;;;5066805;28;45224;-74
2022/07/30 06:00:53;;;;;;;1.73;1.63;;;25.40;38.30;;;;;;5066462;28;46382;-73
2022/07/30 06:03:20;;;;;;;1.58;1.48;;;25.40;38.20;;;;;;5066478;28;45223;-73
2022/07/30 06:05:47;;;;;;;1.30;1.20;;;25.40;38.30;;;;;;5064650;28;45220;-73
2022/07/30 06:08:14;;;;;;;1.35;1.25;;;25.40;38.30;;;;;;5065774;28;45408;-74
2022/07/30 06:10:41;;;;;;;1.50;1.40;;;25.40;38.30;;;;;;5065932;28;45241;-74
2022/07/30 06:13:08;;;;;;;1.42;1.33;;;25.40;38.30;;;;;;5066502;28;45211;-73
2022/07/30 06:15:34;;;;;;;1.50;1.40;;;25.40;38.20;;;;;;5069636;28;45317;-73
2022/07/30 06:18:03;;;;;;;1.60;1.50;;;25.40;38.90;;;;;;5070208;28;45361;-73
2022/07/30 06:20:30;;;;;;;2.35;1.30;;;25.40;38.30;;;;;;5069249;28;47339;-73
2022/07/30 06:22:56;;;;;;;1.40;1.30;;;25.30;38.30;;;;;;5069677;28;45298;-73
2022/07/30 06:25:23;;;;;;;1.60;1.50;;;25.40;38.40;;;;;;5069981;28;45257;-73
2022/07/30 06:27:50;;;;;;;1.52;1.42;;;25.40;38.30;;;;;;5069980;28;45204;-73
2022/07/30 06:30:17;;;;;;;1.65;1.50;;;25.40;38.40;;;;;;5062394;28;46434;-73
2022/07/30 06:32:44;;;;;;;1.88;1.50;;;25.40;38.30;;;;;;5069474;28;45350;-73
2022/07/30 06:35:12;;;;;;;2.08;1.50;;;25.40;38.40;;;;;;5069689;28;45329;-73
2022/07/30 06:37:41;;;;;;;1.55;1.40;;;25.40;38.40;;;;;;5052703;28;45403;-73
2022/07/30 06:40:09;;;;;;;1.33;1.17;;;25.40;38.40;;;;;;5080084;28;45280;-73
2022/07/30 06:42:36;;;;;;;1.60;1.50;;;25.40;38.30;;;;;;5089825;28;45271;-73
2022/07/30 06:45:03;;;;;;;1.38;1.27;;;25.40;38.30;;;;;;5090038;28;45341;-73
2022/07/30 06:47:30;;;;;;;1.15;1.15;;;25.40;38.40;;;;;;5090321;28;45471;-73
2022/07/30 06:49:57;;;;;;;1.10;1.10;;;25.50;38.40;;;;;;5089533;28;45209;-73
2022/07/30 06:52:25;;;;;;;2.05;1.40;;;25.50;38.40;;;;;;5089829;28;45386;-73
2022/07/30 06:54:52;;;;;;;1.85;1.70;;;25.50;38.40;;;;;;5089162;28;45469;-73
2022/07/30 06:57:18;;;;;;;1.70;1.40;;;25.50;38.40;;;;;;5089769;28;45380;-74
2022/07/30 06:59:45;;;;;;;1.40;1.30;;;25.50;38.40;;;;;;5089310;28;46284;-74
2022/07/30 07:02:12;;;;;;;1.50;1.40;;;25.50;38.40;;;;;;5089584;28;45198;-73
2022/07/30 07:04:39;;;;;;;1.58;1.38;;;25.50;38.40;;;;;;5089533;28;45363;-73
2022/07/30 07:07:06;;;;;;;1.40;1.30;;;25.50;38.50;;;;;;5087753;28;45422;-73
2022/07/30 07:09:34;;;;;;;1.40;1.30;;;25.50;38.40;;;;;;5089394;28;46371;-73
2022/07/30 07:12:00;;;;;;;1.85;1.50;;;25.60;38.50;;;;;;5089201;28;45266;-73
2022/07/30 07:14:27;;;;;;;1.60;1.50;;;25.60;38.50;;;;;;5089427;28;45151;-73
2022/07/30 07:16:54;;;;;;;1.50;1.40;;;25.60;39.10;;;;;;5089445;28;45294;-72
2022/07/30 07:19:21;;;;;;;1.27;1.20;;;25.60;38.50;;;;;;5089244;28;45393;-73
2022/07/30 07:21:48;;;;;;;1.52;1.40;;;25.60;38.50;;;;;;5089131;28;45329;-73
2022/07/30 07:24:17;;;;;;;1.45;1.35;;;25.70;38.50;;;;;;5089286;28;45195;-73
2022/07/30 07:26:45;;;;;;;1.38;1.27;;;25.70;38.50;;;;;;5088275;27;45405;-73
2022/07/30 07:29:12;;;;;;;1.60;1.10;;;25.70;38.50;;;;;;5084773;28;46674;-73
2022/07/30 07:31:39;;;;;;;1.65;1.40;;;25.80;38.50;;;;;;5086476;28;45362;-73
2022/07/30 07:34:06;;;;;;;1.40;1.30;;;25.80;38.50;;;;;;5089156;28;45277;-73
2022/07/30 07:36:34;;;;;;;1.30;1.30;;;25.80;38.50;;;;;;5089324;27;45329;-73
2022/07/30 07:39:01;;;;;;;1.42;1.33;;;25.80;38.50;;;;;;5109017;27;45694;-72
2022/07/30 07:41:27;;;;;;;2.00;1.50;;;25.80;38.50;;;;;;5108853;27;45293;-73
2022/07/30 07:43:56;;;;;;;1.35;1.25;;;25.80;38.50;;;;;;5109530;27;45208;-72
2022/07/30 07:46:22;;;;;;;1.70;1.60;;;25.90;38.60;;;;;;5109678;27;45184;-73
2022/07/30 07:48:49;;;;;;;1.52;1.40;;;25.90;38.60;;;;;;5109081;27;46399;-73
2022/07/30 07:51:16;;;;;;;1.77;1.42;;;25.90;38.60;;;;;;5108970;27;45279;-73
2022/07/30 07:53:43;;;;;;;1.55;1.45;;;25.90;38.70;;;;;;5109260;27;45241;-73
2022/07/30 07:56:10;;;;;;;1.50;1.40;;;25.90;38.60;;;;;;5109666;27;45190;-73
2022/07/30 07:58:36;;;;;;;1.55;1.45;;;25.90;38.60;;;;;;5109016;27;45195;-74
2022/07/30 08:01:05;;;;;;;1.50;1.40;;;25.90;38.60;;;;;;5108975;27;45211;-73
2022/07/30 08:03:32;;;;;;;1.40;1.30;;;25.90;38.60;;;;;;5119989;27;45249;-73
2022/07/30 08:06:00;;;;;;;1.48;1.38;;;26.00;38.70;;;;;;5126590;27;44858;-73
2022/07/30 08:08:27;;;;;;;1.13;1.10;;;26.00;38.60;;;;;;5111926;28;45277;-73
2022/07/30 08:10:54;;;;;;;1.48;1.38;;;26.00;38.50;;;;;;5110046;28;44583;-73
2022/07/30 08:13:22;;;;;;;1.38;1.27;;;26.00;38.50;;;;;;5092682;28;45344;-73
2022/07/30 08:15:49;;;;;;;1.50;1.40;;;26.10;38.40;;;;;;5088474;28;45395;-73
2022/07/30 08:18:17;;;;;;;1.20;1.20;;;26.10;38.40;;;;;;5087301;28;45331;-73
2022/07/30 08:20:44;;;;;;;1.30;1.20;;;26.10;38.30;;;;;;5088114;28;45207;-73
2022/07/30 08:23:11;;;;;;;1.30;1.17;;;26.10;38.40;;;;;;5087715;28;45359;-73
2022/07/30 08:25:38;;;;;;;1.45;1.35;;;26.20;38.40;;;;;;5087973;28;45435;-72
2022/07/30 08:28:05;;;;;;;1.40;1.30;;;26.20;38.90;;;;;;5087255;28;47360;-73
2022/07/30 08:30:32;;;;;;;1.58;1.35;;;26.20;38.30;;;;;;5103092;27;45177;-73
2022/07/30 08:32:58;;;;;;;2.25;1.90;;;26.30;38.50;;;;;;5108532;27;45180;-73
2022/07/30 08:35:27;;;;;;;3.15;1.92;;;26.30;39.50;;;;;;5108844;27;45365;-73
2022/07/30 08:37:53;;;;;;;3.78;1.70;;;26.30;39.70;;;;;;5088439;27;46421;-73
2022/07/30 08:40:20;;;;;;;3.20;2.00;;;26.30;39.40;;;;;;5087775;28;45175;-73
2022/07/30 08:42:47;;;;;;;3.67;2.28;;;26.40;40.00;;;;;;5088105;28;45187;-73
2022/07/30 08:45:16;;;;;;;2.92;2.13;;;26.40;40.20;;;;;;5088262;28;45200;-73
2022/07/30 08:47:44;;;;;;;2.60;2.20;;;26.40;40.50;;;;;;5087732;28;45323;-73
2022/07/30 08:50:11;;;;;;;3.33;2.33;;;26.40;41.00;;;;;;5087701;28;45132;-73
2022/07/30 08:52:39;;;;;;;1.92;1.80;;;26.50;40.60;;;;;;5087840;28;45202;-73
2022/07/30 08:55:07;;;;;;;2.90;2.08;;;26.50;40.00;;;;;;5088204;28;45249;-73
2022/07/30 08:57:34;;;;;;;6.30;1.92;;;26.50;40.60;;;;;;5087451;28;45249;-73
2022/07/30 09:00:01;;;;;;;5.57;2.55;;;26.60;40.40;;;;;;5087658;28;45184;-73
2022/07/30 09:02:29;;;;;;;2.72;2.20;;;26.50;40.20;;;;;;5087777;28;45354;-73
2022/07/30 09:04:55;;;;;;;4.53;2.05;;;26.50;40.50;;;;;;5087643;28;45368;-73
2022/07/30 09:07:22;;;;;;;3.17;2.13;;;26.60;40.60;;;;;;5087324;28;46431;-73
2022/07/30 09:09:51;;;;;;;2.45;2.00;;;26.60;40.30;;;;;;5087343;28;44705;-72
2022/07/30 09:12:37;;;;;;;4.30;2.03;;;26.70;39.60;;;;;;5087404;28;45178;-72
2022/07/30 09:15:06;;;;;;;2.80;1.80;;;26.60;38.60;;;;;;5087647;28;45187;-73
2022/07/30 09:17:51;;;;;;;2.63;1.77;;;26.60;38.50;;;;;;5087367;28;46344;-73
2022/07/30 09:20:18;;;;;;;2.70;1.75;;;26.70;38.00;;;;;;5087592;28;45324;-73
2022/07/30 09:22:46;;;;;;;3.35;1.90;;;26.70;37.80;;;;;;5087590;28;45440;-73
2022/07/30 09:25:14;;;;;;;3.33;1.90;;;26.70;37.60;;;;;;5087096;28;45461;-71
2022/07/30 09:27:45;;;;;;;2.60;1.63;;;26.80;37.50;;;;;;5086364;28;46437;-73
2022/07/30 09:30:12;;;;;;;3.05;1.65;;;26.80;37.40;;;;;;5086853;28;45239;-73
2022/07/30 09:32:50;;;;;;;2.58;1.58;;;26.80;37.20;;;;;;5087144;28;45222;-73
2022/07/30 09:35:16;;;;;;;2.53;1.40;;;26.80;37.00;;;;;;5087705;28;45445;-73
2022/07/30 09:37:44;;;;;;;2.70;1.50;;;26.90;36.40;;;;;;5104689;27;45448;-73
2022/07/30 09:40:14;;;;;;;1.48;1.38;;;26.90;36.30;;;;;;5107549;27;45453;-73
2022/07/30 09:42:41;;;;;;;2.95;1.70;;;26.90;36.10;;;;;;5107992;27;45310;-73
2022/07/30 09:45:09;;;;;;;3.15;1.60;;;27.00;36.20;;;;;;5108073;27;45407;-73
2022/07/30 09:47:36;;;;;;;3.08;1.70;;;27.00;36.20;;;;;;5106142;27;45273;-73
2022/07/30 09:50:05;;;;;;;3.10;1.38;;;27.10;36.10;;;;;;5106730;27;45299;-72
2022/07/30 09:52:32;;;;;;;3.95;1.50;;;27.10;36.00;;;;;;5107682;27;45240;-72
2022/07/30 09:54:59;;;;;;;2.03;1.40;;;27.20;35.70;;;;;;5106208;27;45284;-72
2022/07/30 09:57:27;;;;;;;3.50;1.40;;;27.20;36.10;;;;;;5107276;27;46668;-72
2022/07/30 09:59:55;;;;;;;1.60;1.30;;;27.20;36.00;;;;;;5107516;27;45306;-72
2022/07/30 10:02:24;;;;;;;2.05;1.55;;;27.30;36.00;;;;;;5107573;27;45363;-72
2022/07/30 10:04:51;;;;;;;3.10;1.55;;;27.30;35.90;;;;;;5107758;27;45272;-72
2022/07/30 10:07:18;;;;;;;3.22;1.45;;;27.40;35.80;;;;;;5090202;27;46402;-72
2022/07/30 10:09:45;;;;;;;1.60;1.50;;;27.40;35.30;;;;;;5086900;28;45297;-72
2022/07/30 10:12:13;;;;;;;3.58;1.40;;;27.40;35.70;;;;;;5086851;28;45399;-73
2022/07/30 10:14:43;;;;;;;2.00;1.48;;;27.40;35.50;;;;;;5087118;28;45448;-72
2022/07/30 10:17:10;;;;;;;1.67;1.30;;;27.50;35.60;;;;;;5086035;28;46974;-72
2022/07/30 10:19:37;;;;;;;1.55;1.45;;;27.50;35.30;;;;;;5086181;28;45349;-72
2022/07/30 10:22:04;;;;;;;2.30;1.20;;;27.50;35.50;;;;;;5086698;28;45306;-72
2022/07/30 10:24:31;;;;;;;1.55;1.38;;;27.60;35.50;;;;;;5086489;28;45374;-72
2022/07/30 10:26:57;;;;;;;1.50;1.40;;;27.60;35.50;;;;;;5086290;28;46395;-72
2022/07/30 10:29:24;;;;;;;2.35;1.60;;;27.70;35.50;;;;;;5091845;27;45269;-72
2022/07/30 10:31:52;;;;;;;3.22;1.67;;;27.70;35.20;;;;;;5107041;27;45238;-72
2022/07/30 10:34:20;;;;;;;2.75;1.50;;;27.70;35.50;;;;;;5107433;27;45323;-73
2022/07/30 10:36:48;;;;;;;2.47;1.23;;;27.80;35.50;;;;;;5096353;27;46376;-73
2022/07/30 10:39:18;;;;;;;1.88;1.70;;;27.80;34.80;;;;;;5086010;28;45202;-73
2022/07/30 10:41:48;;;;;;;5.35;1.30;;;27.80;35.20;;;;;;5086304;28;45337;-73
2022/07/30 10:44:47;;;;;;;2.13;1.50;;;27.90;35.30;;;;;;5086655;28;45184;-73
2022/07/30 10:47:17;;;;;;;1.88;1.30;;;27.90;34.90;;;;;;5085951;28;46455;-73
2022/07/30 10:50:06;;;;;;;1.73;1.63;;;28.00;34.90;;;;;;5086235;28;45220;-73
2022/07/30 10:52:49;;;;;;;2.15;1.48;;;28.10;34.90;;;;;;5086266;28;45523;-73
2022/07/30 10:55:16;;;;;;;3.67;1.60;;;28.10;35.00;;;;;;5086646;28;45416;-72
2022/07/30 10:58:05;;;;;;;2.72;1.38;;;28.20;34.90;;;;;;5085746;28;46341;-73
2022/07/30 11:00:32;;;;;;;1.70;1.45;;;28.20;34.80;;;;;;5087566;27;45151;-73
2022/07/30 11:03:22;;;;;;;2.65;1.60;;;28.30;34.90;;;;;;5089938;28;45237;-73
2022/07/30 11:05:50;;;;;;;2.90;1.60;;;28.30;35.00;;;;;;5085680;28;45217;-74
2022/07/30 11:08:33;;;;;;;2.33;1.63;;;28.40;35.80;;;;;;5069081;28;46304;-74
2022/07/30 11:11:00;;;;;;;2.50;1.33;;;28.40;34.80;;;;;;5068879;28;45284;-73
2022/07/30 11:13:49;;;;;;;4.40;1.50;;;28.40;34.90;;;;;;5069104;28;45183;-73
2022/07/30 11:16:18;;;;;;;3.05;1.50;;;28.50;34.80;;;;;;5069401;28;45230;-73
2022/07/30 11:19:05;;;;;;;3.03;1.50;;;28.60;35.40;;;;;;5069197;28;46664;-74
2022/07/30 11:21:32;;;;;;;2.03;1.52;;;28.60;34.60;;;;;;5068089;28;45303;-72
2022/07/30 11:23:59;;;;;;;1.77;1.40;;;28.60;34.20;;;;;;5068896;28;45193;-73
2022/07/30 11:26:50;;;;;;;1.83;1.60;;;28.50;34.30;;;;;;5066691;28;45198;-73
2022/07/30 11:29:37;;;;;;;2.75;1.50;;;28.60;34.50;;;;;;5064378;28;46638;-74
2022/07/30 11:32:23;;;;;;;5.40;1.65;;;28.70;34.50;;;;;;5073673;28;45241;-73
2022/07/30 11:34:51;;;;;;;2.63;1.52;;;28.80;34.40;;;;;;5072982;28;45239;-73
2022/07/30 11:37:18;;;;;;;1.70;1.60;;;28.90;34.40;;;;;;5081165;28;45488;-73
2022/07/30 11:40:08;;;;;;;3.08;1.60;;;28.90;34.40;;;;;;5088957;28;45376;-73
2022/07/30 11:42:36;;;;;;;5.10;1.60;;;28.90;34.40;;;;;;5088539;28;45264;-73
2022/07/30 11:45:28;;;;;;;3.35;1.60;;;29.00;34.60;;;;;;5088823;28;45319;-73
2022/07/30 11:47:56;;;;;;;2.03;1.50;;;29.00;34.70;;;;;;5089375;28;45224;-73
2022/07/30 11:50:25;;;;;;;1.50;1.33;;;29.00;34.80;;;;;;5088805;28;45291;-74
2022/07/30 11:52:52;;;;;;;2.63;1.60;;;29.10;34.50;;;;;;5088303;28;45317;-73
2022/07/30 11:55:23;;;;;;;2.67;1.52;;;29.10;34.00;;;;;;5089023;28;45231;-73
2022/07/30 11:57:49;;;;;;;1.85;1.30;;;29.20;34.10;;;;;;5089137;28;45543;-74
2022/07/30 12:00:17;;;;;;;1.77;1.30;;;29.20;33.60;;;;;;5079075;28;46717;-73
2022/07/30 12:02:44;;;;;;;1.92;1.33;;;29.30;33.30;;;;;;5065684;28;45207;-73
2022/07/30 12:05:10;;;;;;;1.42;1.30;;;29.40;33.50;;;;;;5068646;28;45242;-73
2022/07/30 12:07:39;;;;;;;3.75;1.40;;;29.40;33.40;;;;;;5049426;28;45194;-73
2022/07/30 12:10:15;;;;;;;1.35;1.15;;;29.40;33.50;;;;;;5047987;28;46422;-73
2022/07/30 12:12:42;;;;;;;2.33;1.67;;;29.40;33.50;;;;;;5047203;28;45289;-73
2022/07/30 12:15:09;;;;;;;10.20;1.65;;;29.40;33.50;;;;;;5048514;28;45171;-73
2022/07/30 12:17:43;;;;;;;7.07;2.00;;;29.50;34.10;;;;;;5048530;28;45132;-72
2022/07/30 12:20:16;;;;;;;8.88;1.77;;;29.40;37.00;;;;;;5047920;28;46437;-71
2022/07/30 12:22:44;;;;;;;5.22;1.55;;;29.40;38.30;;;;;;5048063;28;45242;-67
2022/07/30 12:25:12;;;;;;;6.40;1.90;;;29.40;37.60;;;;;;5047883;28;45235;-68
2022/07/30 12:27:39;;;;;;;3.17;1.65;;;29.50;37.90;;;;;;5047699;28;45222;-69
2022/07/30 12:30:07;;;;;;;3.40;1.70;;;29.70;38.80;;;;;;5062637;28;45284;-67
2022/07/30 12:32:34;;;;;;;2.75;1.50;;;29.90;38.70;;;;;;5087834;28;45249;-68
2022/07/30 12:35:01;;;;;;;6.28;1.80;;;30.00;40.30;;;;;;5088502;28;45238;-70
2022/07/30 12:37:28;;;;;;;3.67;1.88;;;30.20;38.80;;;;;;5088749;28;45231;-70
2022/07/30 12:40:07;;;;;;;3.97;1.58;;;30.30;40.50;;;;;;5104542;27;45467;-74
2022/07/30 12:42:34;;;;;;;1.70;1.50;;;30.20;37.40;;;;;;5108634;27;45182;-73
2022/07/30 12:45:01;;;;;;;3.70;1.83;;;30.30;38.80;;;;;;5108959;27;45290;-73
2022/07/30 12:47:29;;;;;;;7.18;1.92;;;30.30;37.10;;;;;;5110178;27;45420;-74
2022/07/30 12:49:56;;;;;;;4.10;1.80;;;30.30;37.50;;;;;;5109096;27;46387;-73
2022/07/30 12:52:24;;;;;;;5.70;1.90;;;30.30;37.30;;;;;;5108046;27;45223;-71
2022/07/30 12:55:02;;;;;;;2.90;2.00;;;30.40;39.60;;;;;;5108706;27;45225;-71